Time;durP1;ratioP1;P1;durP2;ratioP2;P2;SDS_P1;SDS_P2;PMS_P1;PMS_P2;Temp;Humidity;BMP_temperature;BMP_pressure;BME280_temperature;BME280_humidity;BME280_pressure;Samples;Min_cycle;Max_cycle;Signal;HPM_P1;HPM_P2
2022/04/12 00:00:18;;;;;;;40.95;27.85;;;6.80;99.90;;;;;;5063757;28;20425;-71
2022/04/12 00:02:44;;;;;;;41.15;27.30;;;6.70;99.90;;;;;;5061763;28;20240;-71
2022/04/12 00:05:11;;;;;;;40.17;28.73;;;6.70;99.90;;;;;;5071220;28;20461;-71
2022/04/12 00:07:38;;;;;;;41.40;27.50;;;6.70;99.90;;;;;;5058778;28;20433;-71
2022/04/12 00:10:04;;;;;;;42.20;26.70;;;6.70;99.90;;;;;;5070276;28;20048;-71
2022/04/12 00:12:30;;;;;;;47.38;29.23;;;6.70;99.90;;;;;;5071167;28;20051;-71
2022/04/12 00:14:55;;;;;;;41.78;28.85;;;6.70;99.90;;;;;;5070262;28;20032;-71
2022/04/12 00:20:06;;;;;;;51.80;32.70;;;6.70;99.90;;;;;;5062939;28;20072;-71
2022/04/12 00:22:32;;;;;;;45.35;29.73;;;6.60;99.90;;;;;;5068677;28;20857;-71
2022/04/12 00:25:00;;;;;;;43.65;29.88;;;6.60;99.90;;;;;;5048900;28;20440;-71
2022/04/12 00:27:27;;;;;;;42.03;27.95;;;6.60;99.90;;;;;;5069663;28;20133;-71
2022/04/12 00:29:53;;;;;;;43.55;29.60;;;6.50;99.90;;;;;;5070890;28;20050;-71
2022/04/12 00:32:19;;;;;;;43.55;31.15;;;6.50;99.90;;;;;;5064848;28;20044;-71
2022/04/12 00:34:44;;;;;;;46.72;31.60;;;6.30;99.90;;;;;;5050984;28;20067;-71
2022/04/12 00:37:10;;;;;;;42.58;29.60;;;6.20;99.90;;;;;;5069078;28;20094;-71
2022/04/12 00:39:37;;;;;;;45.03;31.45;;;6.20;99.90;;;;;;5069993;28;20041;-71
2022/04/12 00:42:04;;;;;;;45.45;31.10;;;6.20;99.90;;;;;;5067405;28;20048;-71
2022/04/12 00:44:29;;;;;;;47.25;31.08;;;6.20;99.90;;;;;;5056641;28;20045;-71
2022/04/12 00:46:55;;;;;;;42.63;30.63;;;6.20;99.90;;;;;;5057179;28;20052;-71
2022/04/12 00:49:23;;;;;;;42.55;30.02;;;6.10;99.90;;;;;;5070358;28;20076;-71
2022/04/12 00:51:49;;;;;;;50.78;31.83;;;6.00;99.90;;;;;;5068335;28;20409;-71
2022/04/12 00:54:20;;;;;;;48.33;32.17;;;6.00;99.90;;;;;;5068488;28;20051;-71
2022/04/12 00:56:47;;;;;;;49.63;31.85;;;5.90;99.90;;;;;;5068108;28;20055;-71
2022/04/12 00:59:13;;;;;;;44.40;32.00;;;5.90;99.90;;;;;;5068947;28;20080;-71
2022/04/12 01:01:39;;;;;;;51.47;32.53;;;5.90;99.90;;;;;;5068838;28;20090;-71
2022/04/12 01:04:05;;;;;;;45.60;31.13;;;5.80;99.90;;;;;;5070379;28;20036;-71
2022/04/12 01:06:31;;;;;;;47.28;31.48;;;5.80;99.90;;;;;;5069460;28;20052;-71
2022/04/12 01:08:57;;;;;;;59.00;35.15;;;5.80;99.90;;;;;;5052705;28;20048;-70
2022/04/12 01:11:23;;;;;;;52.40;34.45;;;5.70;99.90;;;;;;5069740;28;20044;-71
2022/04/12 01:13:48;;;;;;;44.75;31.15;;;5.80;99.90;;;;;;5068027;28;20040;-71
2022/04/12 01:16:15;;;;;;;46.03;31.55;;;5.80;99.90;;;;;;5049124;28;20490;-71
2022/04/12 01:18:41;;;;;;;43.33;29.70;;;5.80;99.90;;;;;;5070029;28;20167;-71
2022/04/12 01:21:06;;;;;;;46.60;30.63;;;5.80;99.90;;;;;;5068331;28;20123;-71
2022/04/12 01:23:41;;;;;;;45.70;31.33;;;5.90;99.90;;;;;;5069454;28;20044;-71
2022/04/12 01:26:07;;;;;;;42.17;32.03;;;5.90;99.90;;;;;;5069886;28;20048;-71
2022/04/12 01:28:33;;;;;;;50.05;31.23;;;5.80;99.90;;;;;;5058161;28;20063;-71
2022/04/12 01:30:59;;;;;;;44.53;32.20;;;5.80;99.90;;;;;;5070198;28;20385;-71
2022/04/12 01:33:25;;;;;;;48.15;31.17;;;5.80;99.90;;;;;;5065765;28;20428;-71
2022/04/12 01:35:50;;;;;;;48.03;31.30;;;5.80;99.90;;;;;;5067013;28;20516;-71
2022/04/12 01:38:16;;;;;;;44.50;31.88;;;5.80;99.90;;;;;;5065608;28;20048;-71
2022/04/12 01:40:42;;;;;;;45.03;31.35;;;5.70;99.90;;;;;;5069458;28;20121;-71
2022/04/12 01:43:08;;;;;;;42.60;30.83;;;5.80;99.90;;;;;;5069437;28;20066;-71
2022/04/12 01:45:33;;;;;;;47.60;31.50;;;5.70;99.90;;;;;;5069418;28;20084;-71
2022/04/12 01:47:59;;;;;;;53.13;32.30;;;5.70;99.90;;;;;;5069783;28;20045;-71
2022/04/12 01:50:24;;;;;;;45.75;32.03;;;5.70;99.90;;;;;;5068056;28;20048;-71
2022/04/12 01:52:50;;;;;;;46.88;31.05;;;5.70;99.90;;;;;;5070233;28;20486;-71
2022/04/12 01:55:16;;;;;;;52.35;33.67;;;5.60;99.90;;;;;;5069728;28;20711;-71
2022/04/12 01:57:42;;;;;;;49.10;31.75;;;5.60;99.90;;;;;;5067253;28;20091;-71
2022/04/12 02:00:09;;;;;;;51.85;31.73;;;5.50;99.90;;;;;;5069710;28;20068;-71
2022/04/12 02:02:35;;;;;;;48.40;32.35;;;5.50;99.90;;;;;;5069919;28;20086;-71
2022/04/12 02:05:00;;;;;;;49.47;35.13;;;5.40;99.90;;;;;;5070016;28;20472;-71
2022/04/12 02:07:27;;;;;;;47.90;32.58;;;5.40;99.90;;;;;;5068245;28;20056;-71
2022/04/12 02:09:52;;;;;;;48.85;33.20;;;5.40;99.90;;;;;;5068197;28;20401;-71
2022/04/12 02:12:18;;;;;;;48.90;32.17;;;5.40;99.90;;;;;;5069912;28;20048;-71
2022/04/12 02:14:44;;;;;;;52.72;30.80;;;5.40;99.90;;;;;;5068529;28;20052;-71
2022/04/12 02:17:09;;;;;;;45.75;31.52;;;5.30;99.90;;;;;;5069764;28;20127;-71
2022/04/12 02:19:35;;;;;;;47.00;32.72;;;5.30;99.90;;;;;;5069337;28;20045;-71
2022/04/12 02:22:01;;;;;;;44.30;31.85;;;5.20;99.90;;;;;;5069010;28;20068;-71
2022/04/12 02:24:26;;;;;;;43.60;32.03;;;5.10;99.90;;;;;;5068271;28;20044;-71
2022/04/12 02:26:52;;;;;;;43.95;30.98;;;5.00;99.90;;;;;;5069619;28;20041;-71
2022/04/12 02:29:18;;;;;;;51.13;33.00;;;4.90;99.90;;;;;;5052012;28;20639;-71
2022/04/12 02:31:43;;;;;;;49.85;32.20;;;4.80;99.90;;;;;;5067309;28;20052;-71
2022/04/12 02:34:09;;;;;;;44.88;33.00;;;4.70;99.90;;;;;;5051978;28;20056;-71
2022/04/12 02:36:35;;;;;;;41.58;30.98;;;4.80;99.90;;;;;;5068940;28;20049;-71
2022/04/12 02:39:01;;;;;;;45.88;30.95;;;4.80;99.90;;;;;;5065880;28;20551;-71
2022/04/12 02:41:26;;;;;;;42.38;30.45;;;4.90;99.90;;;;;;5049130;28;20120;-71
2022/04/12 02:43:52;;;;;;;51.78;31.52;;;4.90;99.90;;;;;;5057477;28;20075;-71
2022/04/12 02:46:18;;;;;;;43.17;31.00;;;5.00;99.90;;;;;;5072439;28;20098;-71
2022/04/12 02:48:43;;;;;;;52.00;32.40;;;5.00;99.90;;;;;;5073709;28;20036;-71
2022/04/12 02:51:09;;;;;;;50.13;31.80;;;5.00;99.90;;;;;;5070892;28;20040;-71
2022/04/12 02:53:35;;;;;;;44.53;33.10;;;5.00;99.90;;;;;;5060431;28;20044;-71
2022/04/12 02:56:01;;;;;;;42.30;31.88;;;5.00;99.90;;;;;;5073318;28;20053;-71
2022/04/12 02:58:27;;;;;;;43.25;30.10;;;5.00;99.90;;;;;;5073002;28;20082;-71
2022/04/12 03:00:52;;;;;;;47.08;31.60;;;5.00;99.90;;;;;;5073096;28;20083;-71
2022/04/12 03:03:18;;;;;;;47.60;31.25;;;5.10;99.90;;;;;;5071999;28;20075;-71
2022/04/12 03:05:44;;;;;;;45.03;29.48;;;5.10;99.90;;;;;;5067361;28;20048;-71
2022/04/12 03:08:09;;;;;;;47.08;31.35;;;5.20;99.90;;;;;;5062838;28;20071;-71
2022/04/12 03:10:35;;;;;;;48.30;31.63;;;5.20;99.90;;;;;;5072255;28;20032;-71
2022/04/12 03:13:01;;;;;;;43.70;28.92;;;5.10;99.90;;;;;;5072132;28;20107;-71
2022/04/12 03:15:26;;;;;;;48.45;32.85;;;5.00;99.90;;;;;;5070436;28;20044;-71
2022/04/12 03:17:52;;;;;;;43.33;31.48;;;5.00;99.90;;;;;;5072006;28;20055;-71
2022/04/12 03:20:18;;;;;;;47.67;30.30;;;4.90;99.90;;;;;;5071396;28;20033;-71
2022/04/12 03:22:44;;;;;;;45.42;30.58;;;4.80;99.90;;;;;;5069594;28;20449;-71
2022/04/12 03:25:10;;;;;;;49.17;32.45;;;4.80;99.90;;;;;;5071641;28;20105;-71
2022/04/12 03:27:35;;;;;;;44.75;30.02;;;4.80;99.90;;;;;;5070125;28;20051;-71
2022/04/12 03:30:02;;;;;;;40.25;29.27;;;4.80;99.90;;;;;;5070732;28;20053;-71
2022/04/12 03:32:28;;;;;;;48.38;30.73;;;4.80;99.90;;;;;;5071619;28;20040;-71
2022/04/12 03:34:53;;;;;;;45.80;31.10;;;4.60;99.90;;;;;;5072013;28;20047;-71
2022/04/12 03:37:19;;;;;;;40.45;29.45;;;4.60;99.90;;;;;;5069084;28;20040;-71
2022/04/12 03:39:45;;;;;;;44.50;30.90;;;4.60;99.90;;;;;;5070927;28;20040;-71
2022/04/12 03:42:11;;;;;;;52.00;34.60;;;4.50;99.90;;;;;;5072099;28;20045;-71
2022/04/12 03:44:37;;;;;;;47.97;29.52;;;4.50;99.90;;;;;;5072389;28;20045;-71
2022/04/12 03:47:03;;;;;;;47.47;33.08;;;4.50;99.90;;;;;;5068706;28;20090;-71
2022/04/12 03:49:29;;;;;;;51.30;33.38;;;4.50;99.90;;;;;;5070852;28;20048;-71
2022/04/12 03:51:55;;;;;;;41.22;28.55;;;4.60;99.90;;;;;;5069941;28;20627;-71
2022/04/12 03:54:20;;;;;;;45.40;32.25;;;4.60;99.90;;;;;;5073228;28;20048;-71
2022/04/12 03:56:46;;;;;;;49.60;31.75;;;4.60;99.90;;;;;;5072844;28;20092;-71
2022/04/12 03:59:11;;;;;;;47.35;32.45;;;4.60;99.90;;;;;;5071563;28;20049;-71
2022/04/12 04:01:37;;;;;;;41.38;30.40;;;4.60;99.90;;;;;;5069526;28;20490;-71
2022/04/12 04:04:03;;;;;;;45.15;28.95;;;4.60;99.90;;;;;;5071049;28;20044;-71
2022/04/12 04:06:28;;;;;;;47.90;33.40;;;4.60;99.90;;;;;;5068129;28;20386;-71
2022/04/12 04:08:54;;;;;;;54.22;31.73;;;4.60;99.90;;;;;;5070026;28;20090;-71
2022/04/12 04:11:20;;;;;;;44.83;31.20;;;4.60;99.90;;;;;;5071197;28;20048;-71
2022/04/12 04:13:46;;;;;;;45.80;30.77;;;4.60;99.90;;;;;;5072608;28;20083;-71
2022/04/12 04:16:11;;;;;;;49.92;31.23;;;4.50;99.90;;;;;;5071998;28;20440;-71
2022/04/12 04:18:37;;;;;;;46.58;32.08;;;4.50;99.90;;;;;;5070770;28;20444;-71
2022/04/12 04:21:03;;;;;;;49.58;32.50;;;4.50;99.90;;;;;;5070922;28;20041;-71
2022/04/12 04:23:29;;;;;;;47.72;32.40;;;4.50;99.90;;;;;;5070766;28;20036;-71
2022/04/12 04:25:55;;;;;;;45.40;32.72;;;4.60;99.90;;;;;;5071348;28;20078;-71
2022/04/12 04:28:23;;;;;;;47.10;31.10;;;4.70;99.90;;;;;;5071346;28;20052;-71
2022/04/12 04:30:50;;;;;;;45.72;32.90;;;4.70;99.90;;;;;;5071015;28;20032;-71
2022/04/12 04:33:17;;;;;;;44.65;30.75;;;4.70;99.90;;;;;;5069695;28;20060;-71
2022/04/12 04:35:47;;;;;;;42.85;31.10;;;4.60;99.90;;;;;;5069441;28;20048;-71
2022/04/12 04:38:13;;;;;;;51.17;34.22;;;4.60;99.90;;;;;;5070431;28;20041;-71
2022/04/12 04:40:39;;;;;;;45.42;30.73;;;4.60;99.90;;;;;;5071303;28;20049;-71
2022/04/12 04:43:05;;;;;;;56.70;32.58;;;4.50;99.90;;;;;;5071219;28;20447;-71
2022/04/12 04:45:31;;;;;;;42.22;31.42;;;4.50;99.90;;;;;;5068055;28;20502;-71
2022/04/12 04:47:59;;;;;;;51.25;31.50;;;4.50;99.90;;;;;;5070957;28;20072;-71
2022/04/12 04:50:26;;;;;;;48.80;30.88;;;4.50;99.90;;;;;;5069605;28;20052;-71
2022/04/12 04:52:52;;;;;;;52.88;35.58;;;4.50;99.90;;;;;;5069367;28;20131;-71
2022/04/12 04:55:19;;;;;;;49.50;30.90;;;4.50;99.90;;;;;;5071252;28;20148;-71
2022/04/12 04:57:45;;;;;;;49.63;34.33;;;4.60;99.90;;;;;;5071397;28;20052;-71
2022/04/12 05:00:17;;;;;;;49.00;32.08;;;4.60;99.90;;;;;;5060707;28;20080;-71
2022/04/12 05:02:47;;;;;;;49.13;33.92;;;4.70;99.90;;;;;;5070963;28;20074;-72
2022/04/12 05:05:14;;;;;;;49.60;34.50;;;4.70;99.90;;;;;;5069694;28;20052;-71
2022/04/12 05:07:44;;;;;;;43.47;30.42;;;4.70;99.90;;;;;;5060936;28;20047;-72
2022/04/12 05:10:16;;;;;;;44.47;31.67;;;4.80;99.90;;;;;;5070433;28;20128;-71
2022/04/12 05:12:42;;;;;;;46.47;31.52;;;4.80;99.90;;;;;;5070929;28;20106;-72
2022/04/12 05:15:08;;;;;;;53.80;33.85;;;4.70;99.90;;;;;;5070650;28;20040;-72
2022/04/12 05:17:34;;;;;;;46.60;31.85;;;4.70;99.90;;;;;;5070458;28;20047;-72
2022/04/12 05:19:59;;;;;;;43.30;30.40;;;4.70;99.90;;;;;;5070446;28;20478;-73
2022/04/12 05:22:26;;;;;;;44.50;31.52;;;4.70;99.90;;;;;;5070524;28;20071;-72
2022/04/12 05:24:52;;;;;;;45.58;31.35;;;4.60;99.90;;;;;;5070097;28;20056;-72
2022/04/12 05:27:18;;;;;;;45.13;32.90;;;4.50;99.90;;;;;;5063608;28;20047;-72
2022/04/12 05:29:44;;;;;;;42.88;31.13;;;4.50;99.90;;;;;;5070890;28;20044;-71
2022/04/12 05:32:12;;;;;;;50.70;32.17;;;4.40;99.90;;;;;;5061548;28;20033;-72
2022/04/12 05:34:42;;;;;;;50.60;33.20;;;4.50;99.90;;;;;;5056238;28;20053;-72
2022/04/12 05:37:08;;;;;;;48.78;32.95;;;4.50;99.90;;;;;;5059327;28;20566;-72
2022/04/12 05:39:34;;;;;;;49.65;31.08;;;4.60;99.90;;;;;;5073322;28;20074;-72
2022/04/12 05:42:00;;;;;;;49.40;30.70;;;4.70;99.90;;;;;;5068500;28;20046;-71
2022/04/12 05:44:33;;;;;;;44.38;31.58;;;4.70;99.90;;;;;;5068171;28;20040;-72
2022/04/12 05:47:00;;;;;;;41.83;30.33;;;4.70;99.90;;;;;;5055697;28;20045;-72
2022/04/12 05:49:26;;;;;;;44.65;31.85;;;4.80;99.90;;;;;;5067480;28;20080;-72
2022/04/12 05:51:52;;;;;;;47.35;32.25;;;4.90;99.90;;;;;;5067007;28;20511;-72
2022/04/12 05:54:18;;;;;;;54.97;33.22;;;5.20;99.90;;;;;;5065029;28;20043;-72
2022/04/12 05:57:02;;;;;;;44.47;32.83;;;5.50;99.90;;;;;;5061388;28;20067;-72
2022/04/12 05:59:27;;;;;;;46.42;34.03;;;5.70;99.90;;;;;;5068905;28;20505;-72
2022/04/12 06:01:53;;;;;;;44.47;31.20;;;6.00;99.90;;;;;;5067009;28;20036;-72
2022/04/12 06:04:18;;;;;;;41.22;31.15;;;6.20;99.90;;;;;;5067309;28;20386;-72
2022/04/12 06:06:45;;;;;;;46.10;31.33;;;6.30;99.90;;;;;;5064199;28;20052;-72
2022/04/12 06:09:13;;;;;;;46.72;30.35;;;6.50;99.90;;;;;;5069509;28;20036;-72
2022/04/12 06:11:38;;;;;;;51.20;29.87;;;6.70;99.90;;;;;;5065549;28;20115;-72
2022/04/12 06:14:04;;;;;;;43.35;28.10;;;6.80;99.90;;;;;;5064064;28;20413;-72
2022/04/12 06:16:30;;;;;;;43.17;28.75;;;6.90;99.90;;;;;;5069865;28;20111;-72
2022/04/12 06:18:58;;;;;;;48.72;29.15;;;7.00;99.90;;;;;;5070713;28;20048;-72
2022/04/12 06:21:24;;;;;;;;;;;7.00;99.90;;;;;;5069419;28;20405;-72
2022/04/12 06:23:49;;;;;;;41.63;28.60;;;7.00;99.90;;;;;;5054572;28;19920;-73
2022/04/12 06:26:15;;;;;;;39.15;26.75;;;7.00;99.90;;;;;;5054004;28;20045;-72
2022/04/12 06:28:41;;;;;;;46.55;29.23;;;7.10;99.90;;;;;;5062549;28;20040;-72
2022/04/12 06:31:06;;;;;;;44.92;26.58;;;7.20;99.90;;;;;;5065676;28;20410;-72
2022/04/12 06:33:32;;;;;;;39.10;26.95;;;7.20;99.90;;;;;;5064058;28;20036;-72
2022/04/12 06:35:58;;;;;;;35.47;28.15;;;7.30;99.90;;;;;;5067403;28;20071;-71
2022/04/12 06:38:23;;;;;;;44.08;30.20;;;7.40;99.90;;;;;;5061924;28;20125;-71
2022/04/12 06:40:49;;;;;;;47.78;28.90;;;7.40;99.90;;;;;;5055433;28;20498;-73
2022/04/12 06:43:15;;;;;;;37.70;26.73;;;7.60;99.90;;;;;;5064186;28;20037;-73
2022/04/12 06:45:41;;;;;;;38.42;27.92;;;7.70;99.90;;;;;;5068716;28;20037;-72
2022/04/12 06:48:08;;;;;;;41.90;25.17;;;7.80;99.90;;;;;;5068543;28;20040;-72
2022/04/12 06:50:34;;;;;;;38.08;27.83;;;7.80;99.90;;;;;;5064713;28;20048;-72
2022/04/12 06:53:00;;;;;;;40.60;27.75;;;8.00;99.90;;;;;;5051988;28;20068;-72
2022/04/12 06:55:27;;;;;;;44.35;28.30;;;8.00;99.90;;;;;;5068542;28;20056;-72
2022/04/12 06:57:53;;;;;;;39.90;24.80;;;8.10;99.90;;;;;;5068059;28;20052;-72
2022/04/12 07:00:19;;;;;;;39.47;26.33;;;8.10;99.90;;;;;;5061768;28;20465;-72
2022/04/12 07:02:46;;;;;;;39.88;25.42;;;8.20;99.90;;;;;;5058824;28;20502;-72
2022/04/12 07:05:12;;;;;;;41.38;27.08;;;8.20;99.90;;;;;;5061143;28;20047;-72
2022/04/12 07:07:39;;;;;;;35.67;25.13;;;8.20;99.90;;;;;;5065487;28;20127;-73
2022/04/12 07:10:08;;;;;;;37.13;27.38;;;8.30;99.90;;;;;;5064479;28;20072;-72
2022/04/12 07:12:34;;;;;;;33.03;25.77;;;8.30;99.90;;;;;;5063196;28;20125;-72
2022/04/12 07:15:00;;;;;;;38.17;24.88;;;8.30;99.90;;;;;;5066834;28;20070;-72
2022/04/12 07:17:26;;;;;;;35.20;24.88;;;8.40;99.90;;;;;;5067995;28;20191;-72
2022/04/12 07:19:51;;;;;;;37.80;26.58;;;8.40;99.90;;;;;;5061191;28;20565;-73
2022/04/12 07:22:17;;;;;;;35.28;25.83;;;8.50;99.90;;;;;;5051493;28;20055;-72
2022/04/12 07:24:43;;;;;;;46.70;25.52;;;8.60;99.90;;;;;;5063285;28;20371;-72
2022/04/12 07:27:09;;;;;;;34.72;24.38;;;8.80;99.90;;;;;;5054058;28;20486;-72
2022/04/12 07:29:35;;;;;;;28.52;23.38;;;8.90;99.90;;;;;;5067104;28;20044;-72
2022/04/12 07:32:02;;;;;;;33.38;24.15;;;9.10;99.90;;;;;;5070430;28;20044;-73
2022/04/12 07:34:32;;;;;;;37.65;25.30;;;9.40;99.90;;;;;;5068842;28;20397;-73
2022/04/12 07:37:01;;;;;;;30.42;23.13;;;9.80;99.90;;;;;;5054001;28;20094;-73
2022/04/12 07:39:27;;;;;;;27.83;21.73;;;10.10;99.90;;;;;;5064307;28;20051;-71
2022/04/12 07:41:53;;;;;;;33.10;20.20;;;10.40;99.90;;;;;;5068475;28;20048;-72
2022/04/12 07:44:20;;;;;;;38.35;23.80;;;10.70;99.90;;;;;;5085202;28;20045;-74
2022/04/12 07:46:46;;;;;;;32.72;22.08;;;11.00;99.90;;;;;;5087834;28;20044;-73
2022/04/12 07:49:13;;;;;;;30.33;22.95;;;11.30;99.90;;;;;;5070904;28;20133;-73
2022/04/12 07:51:39;;;;;;;27.00;20.48;;;11.50;99.90;;;;;;5072445;28;20048;-73
2022/04/12 07:54:06;;;;;;;30.75;22.08;;;11.70;99.90;;;;;;5087281;28;20489;-77
2022/04/12 07:56:32;;;;;;;25.50;20.15;;;11.90;99.90;;;;;;5071058;28;20060;-73
2022/04/12 07:58:58;;;;;;;31.13;23.23;;;12.00;99.90;;;;;;5071136;28;20128;-72
2022/04/12 08:01:24;;;;;;;26.70;21.52;;;12.20;99.90;;;;;;5069497;28;20096;-73
2022/04/12 08:03:50;;;;;;;28.10;20.95;;;12.40;99.90;;;;;;5071197;28;20048;-72
2022/04/12 08:06:16;;;;;;;28.80;21.10;;;12.40;99.90;;;;;;5072232;28;20055;-72
2022/04/12 08:08:41;;;;;;;25.92;20.52;;;12.50;99.90;;;;;;5068401;28;20037;-73
2022/04/12 08:11:07;;;;;;;29.23;19.70;;;12.70;99.90;;;;;;5065145;28;20049;-71
2022/04/12 08:13:34;;;;;;;30.88;20.65;;;12.70;99.90;;;;;;5068278;28;20437;-71
2022/04/12 08:15:59;;;;;;;31.65;20.88;;;12.70;99.90;;;;;;5069050;28;20044;-71
2022/04/12 08:18:26;;;;;;;27.55;20.85;;;12.80;99.90;;;;;;5070312;28;20040;-71
2022/04/12 08:20:54;;;;;;;30.15;19.85;;;13.00;99.90;;;;;;5072481;28;20394;-71
2022/04/12 08:23:24;;;;;;;27.38;20.80;;;13.10;99.90;;;;;;5072116;28;20048;-71
2022/04/12 08:25:53;;;;;;;28.90;19.98;;;13.20;99.90;;;;;;5060935;28;20045;-71
2022/04/12 08:28:20;;;;;;;30.75;20.92;;;13.20;99.90;;;;;;5050897;28;20041;-72
2022/04/12 08:30:45;;;;;;;29.65;20.48;;;13.30;99.90;;;;;;5070285;28;20132;-71
2022/04/12 08:33:11;;;;;;;26.65;21.20;;;13.20;99.90;;;;;;5070301;28;20131;-71
2022/04/12 08:35:37;;;;;;;43.60;20.13;;;13.30;99.90;;;;;;5070226;28;20683;-72
2022/04/12 08:38:02;;;;;;;37.42;23.15;;;13.40;99.60;;;;;;5069907;28;20049;-70
2022/04/12 08:40:29;;;;;;;32.95;21.15;;;13.50;99.50;;;;;;5070662;28;20060;-72
2022/04/12 08:42:57;;;;;;;33.05;21.65;;;13.50;97.70;;;;;;5065917;28;20379;-72
2022/04/12 08:45:23;;;;;;;30.85;21.45;;;13.50;98.80;;;;;;5069480;28;20052;-71
2022/04/12 08:47:51;;;;;;;24.33;20.20;;;13.50;98.40;;;;;;5071014;28;20122;-69
2022/04/12 08:50:18;;;;;;;27.38;21.08;;;13.70;97.10;;;;;;5053802;28;20048;-70
2022/04/12 08:52:45;;;;;;;28.30;21.40;;;13.80;97.20;;;;;;5065412;28;20040;-72
2022/04/12 08:55:11;;;;;;;29.98;19.02;;;13.90;98.80;;;;;;5070116;28;20131;-70
2022/04/12 08:57:38;;;;;;;37.33;22.88;;;14.20;96.50;;;;;;5070261;28;20127;-73
2022/04/12 09:00:06;;;;;;;34.42;21.85;;;14.40;94.90;;;;;;5069160;28;20052;-73
2022/04/12 09:02:32;;;;;;;30.50;20.10;;;14.40;91.60;;;;;;5064440;28;20076;-72
2022/04/12 09:04:59;;;;;;;28.52;21.88;;;14.50;95.00;;;;;;5054001;28;20135;-72
2022/04/12 09:07:26;;;;;;;30.48;22.42;;;14.70;93.30;;;;;;5069024;28;20055;-73
2022/04/12 09:10:02;;;;;;;23.85;20.10;;;14.70;93.70;;;;;;5064699;28;20131;-72
2022/04/12 09:12:33;;;;;;;29.05;19.58;;;14.70;93.20;;;;;;5064343;28;20044;-73
2022/04/12 09:14:58;;;;;;;29.30;21.42;;;14.80;91.20;;;;;;5064348;28;20501;-75
2022/04/12 09:17:34;;;;;;;29.42;20.38;;;14.80;91.60;;;;;;5062735;28;20068;-73
2022/04/12 09:20:01;;;;;;;35.22;21.80;;;14.80;91.60;;;;;;5062647;28;20718;-75
2022/04/12 09:22:28;;;;;;;27.17;19.40;;;14.90;91.70;;;;;;5065116;28;20044;-74
2022/04/12 09:24:57;;;;;;;24.25;19.20;;;14.80;91.30;;;;;;5059677;28;20056;-74
2022/04/12 09:27:33;;;;;;;26.83;20.40;;;14.80;90.90;;;;;;5047916;28;20052;-73
2022/04/12 09:30:06;;;;;;;30.05;20.67;;;14.80;88.10;;;;;;5048977;28;20056;-73
2022/04/12 09:32:37;;;;;;;30.85;21.73;;;14.90;90.50;;;;;;5055871;28;20045;-73
2022/04/12 09:35:04;;;;;;;30.98;20.20;;;15.00;91.70;;;;;;5068779;28;20055;-74
2022/04/12 09:37:33;;;;;;;26.30;19.92;;;15.10;90.40;;;;;;5068526;28;20131;-73
2022/04/12 09:39:58;;;;;;;30.02;18.95;;;15.20;88.10;;;;;;5069305;28;20045;-72
2022/04/12 09:42:51;;;;;;;28.48;19.98;;;15.30;89.00;;;;;;5069515;28;20044;-73
2022/04/12 09:45:28;;;;;;;25.73;20.77;;;15.40;88.20;;;;;;5047594;28;20078;-74
2022/04/12 09:47:56;;;;;;;29.08;19.73;;;15.40;85.00;;;;;;5065659;28;20509;-74
2022/04/12 09:50:24;;;;;;;28.63;21.02;;;15.40;88.10;;;;;;5069166;28;20524;-75
2022/04/12 09:53:01;;;;;;;28.23;22.50;;;15.50;89.10;;;;;;5069855;28;20106;-74
2022/04/12 09:55:35;;;;;;;31.25;21.23;;;15.60;83.10;;;;;;5052002;28;20059;-73
2022/04/12 09:58:03;;;;;;;24.67;18.65;;;15.70;86.10;;;;;;5052043;28;20103;-75
2022/04/12 10:00:30;;;;;;;29.58;21.13;;;15.90;85.70;;;;;;5067675;28;20084;-71
2022/04/12 10:03:02;;;;;;;26.08;19.95;;;16.00;89.20;;;;;;5061857;28;20556;-71
2022/04/12 10:05:28;;;;;;;27.30;20.00;;;16.20;84.60;;;;;;5064954;28;20044;-72
2022/04/12 10:07:59;;;;;;;38.67;20.75;;;16.30;84.90;;;;;;5048567;28;20414;-73
2022/04/12 10:10:26;;;;;;;33.25;20.05;;;16.30;84.30;;;;;;5060913;28;20478;-72
2022/04/12 10:12:56;;;;;;;29.50;20.33;;;16.30;81.40;;;;;;5069105;28;20097;-72
2022/04/12 10:15:23;;;;;;;22.73;17.40;;;16.30;83.10;;;;;;5055265;28;20067;-71
2022/04/12 10:17:50;;;;;;;23.10;18.40;;;16.40;83.30;;;;;;5060744;28;20052;-73
2022/04/12 10:20:18;;;;;;;27.60;19.50;;;16.60;80.70;;;;;;5059729;28;20069;-72
2022/04/12 10:22:44;;;;;;;32.95;18.85;;;16.80;82.00;;;;;;5049077;28;20060;-72
2022/04/12 10:25:14;;;;;;;22.77;18.38;;;16.80;82.10;;;;;;5062819;28;20052;-72
2022/04/12 10:27:40;;;;;;;24.85;20.45;;;16.80;80.60;;;;;;5056441;28;20077;-71
2022/04/12 10:30:17;;;;;;;25.58;20.27;;;16.80;81.90;;;;;;5049781;28;20083;-72
2022/04/12 10:33:06;;;;;;;27.50;19.70;;;16.80;83.70;;;;;;5048833;28;20127;-73
2022/04/12 10:35:44;;;;;;;28.45;19.77;;;16.80;81.20;;;;;;5049985;28;20466;-73
2022/04/12 10:38:11;;;;;;;30.70;21.95;;;16.80;78.50;;;;;;5050565;28;20056;-72
2022/04/12 10:40:42;;;;;;;28.05;20.15;;;16.90;82.20;;;;;;5062206;28;20105;-74
2022/04/12 10:43:11;;;;;;;27.42;20.20;;;16.90;80.10;;;;;;5069835;28;20123;-74
2022/04/12 10:45:46;;;;;;;25.73;21.48;;;17.00;80.30;;;;;;5068269;28;20056;-74
2022/04/12 10:48:19;;;;;;;28.45;20.95;;;16.90;80.60;;;;;;5069821;28;20045;-73
2022/04/12 10:50:46;;;;;;;32.55;22.02;;;17.00;82.30;;;;;;5048876;28;20399;-73
2022/04/12 10:53:12;;;;;;;26.98;20.85;;;17.10;81.10;;;;;;5069825;28;20094;-73
2022/04/12 10:55:41;;;;;;;27.42;20.55;;;17.20;82.20;;;;;;5052339;28;20131;-73
2022/04/12 10:58:29;;;;;;;34.03;21.55;;;17.30;79.70;;;;;;5066640;28;20056;-73
2022/04/12 11:00:55;;;;;;;33.60;22.13;;;17.30;75.60;;;;;;5069387;28;20052;-71
2022/04/12 11:03:40;;;;;;;28.50;21.00;;;17.30;78.30;;;;;;5066796;28;20051;-71
2022/04/12 11:06:13;;;;;;;27.30;20.48;;;17.40;79.20;;;;;;5066907;28;20052;-72
2022/04/12 11:08:39;;;;;;;27.90;20.42;;;17.40;79.10;;;;;;5068907;28;20479;-71
2022/04/12 11:11:06;;;;;;;36.58;23.00;;;17.50;79.10;;;;;;5070985;28;20052;-72
2022/04/12 11:13:32;;;;;;;39.03;23.63;;;17.60;77.50;;;;;;5067547;28;20056;-71
2022/04/12 11:16:08;;;;;;;30.90;20.17;;;17.70;78.80;;;;;;5066988;28;20127;-74
2022/04/12 11:18:57;;;;;;;24.40;19.38;;;17.80;77.50;;;;;;5064765;28;20119;-72
2022/04/12 11:21:47;;;;;;;37.25;21.13;;;17.80;76.10;;;;;;5047550;28;20500;-74
2022/04/12 11:24:14;;;;;;;26.25;19.70;;;17.90;78.60;;;;;;5069004;28;20580;-73
2022/04/12 11:26:50;;;;;;;60.00;21.27;;;18.10;75.40;;;;;;5069584;28;20106;-73
2022/04/12 11:29:21;;;;;;;32.97;20.55;;;18.10;74.40;;;;;;5054057;28;20052;-73
2022/04/12 11:31:47;;;;;;;30.30;21.38;;;18.10;72.00;;;;;;5054271;28;20044;-73
2022/04/12 11:34:14;;;;;;;34.08;21.30;;;18.20;74.20;;;;;;5070608;28;20509;-74
2022/04/12 11:36:52;;;;;;;30.80;19.95;;;18.30;73.70;;;;;;5069024;28;20047;-73
2022/04/12 11:39:25;;;;;;;;;;;18.50;72.30;;;;;;5069651;28;20052;-72
2022/04/12 11:41:57;;;;;;;28.67;19.90;;;18.60;66.50;;;;;;5069863;28;20026;-73
2022/04/12 11:44:22;;;;;;;34.65;19.33;;;18.70;69.90;;;;;;5070613;28;20588;-73
2022/04/12 11:47:00;;;;;;;28.10;18.98;;;18.60;70.80;;;;;;5053211;28;20080;-73
2022/04/12 11:49:27;;;;;;;;;;;18.60;69.20;;;;;;5050860;28;20076;-72
2022/04/12 11:51:52;;;;;;;28.30;18.50;;;18.60;67.10;;;;;;5052423;28;19925;-73
2022/04/12 11:54:27;;;;;;;26.20;19.10;;;18.50;69.30;;;;;;5068418;28;20051;-73
2022/04/12 11:57:05;;;;;;;24.95;18.67;;;18.50;69.10;;;;;;5051428;28;20057;-73
2022/04/12 11:59:46;;;;;;;26.58;17.90;;;18.60;67.70;;;;;;5060836;28;20502;-72
2022/04/12 12:02:12;;;;;;;26.23;17.63;;;18.70;66.70;;;;;;5069555;28;20520;-72
2022/04/12 12:04:45;;;;;;;28.20;19.23;;;18.80;67.90;;;;;;5070133;28;20495;-72
2022/04/12 12:07:11;;;;;;;27.13;19.40;;;18.80;64.10;;;;;;5063956;28;20048;-72
2022/04/12 12:09:39;;;;;;;29.38;22.30;;;18.80;64.60;;;;;;5051504;28;20622;-72
2022/04/12 12:12:07;;;;;;;37.17;21.02;;;18.80;65.50;;;;;;5050055;28;20052;-73
2022/04/12 12:14:37;;;;;;;32.45;20.25;;;18.80;66.10;;;;;;5050338;28;20123;-73
2022/04/12 12:17:09;;;;;;;29.45;19.23;;;18.70;66.30;;;;;;5038283;28;20087;-73
2022/04/12 12:19:38;;;;;;;30.45;18.88;;;18.70;67.60;;;;;;5068964;28;20628;-73
2022/04/12 12:22:09;;;;;;;32.13;21.50;;;18.80;67.30;;;;;;5068436;28;20494;-72
2022/04/12 12:24:48;;;;;;;41.72;21.42;;;18.80;67.20;;;;;;5057983;28;20095;-73
2022/04/12 12:27:14;;;;;;;33.47;21.73;;;18.90;66.60;;;;;;5052767;28;20517;-71
2022/04/12 12:29:42;;;;;;;36.45;22.30;;;19.10;67.10;;;;;;5071120;28;20041;-72
2022/04/12 12:32:08;;;;;;;33.50;22.10;;;19.10;65.50;;;;;;5065045;28;20072;-72
2022/04/12 12:34:36;;;;;;;33.50;20.85;;;19.30;66.60;;;;;;5070749;28;20124;-72
2022/04/12 12:37:08;;;;;;;34.92;22.08;;;19.40;66.10;;;;;;5070183;28;20047;-73